createdAt,value
2022-10-01T00:04:09.637Z,100.00
2022-10-01T00:09:11.182Z,100.00
2022-10-01T00:14:12.724Z,100.00
2022-10-01T00:19:15.076Z,100.00
2022-10-01T00:24:16.695Z,100.00
2022-10-01T00:29:18.245Z,100.00
2022-10-01T00:34:19.894Z,99.85
2022-10-01T00:39:21.755Z,100.00
2022-10-01T00:44:38.405Z,100.00
2022-10-01T00:49:41.106Z,100.00
2022-10-01T00:54:49.334Z,100.00
2022-10-01T00:59:54.384Z,100.00
2022-10-01T01:04:56.095Z,100.00
2022-10-01T01:09:58.315Z,100.00
2022-10-01T01:15:15.143Z,100.00
2022-10-01T01:20:46.036Z,100.00
2022-10-01T01:26:08.093Z,100.00
2022-10-01T01:31:18.675Z,100.00
2022-10-01T01:36:27.590Z,100.00
2022-10-01T01:41:35.072Z,100.00
2022-10-01T01:46:41.785Z,100.00
2022-10-01T01:51:54.413Z,100.00
2022-10-01T01:56:58.271Z,100.00
2022-10-01T02:02:00.818Z,100.00
2022-10-01T02:07:16.136Z,100.00
2022-10-01T02:12:56.041Z,100.00
2022-10-01T02:18:16.597Z,100.00
2022-10-01T02:23:24.217Z,100.00
2022-10-01T02:28:26.139Z,100.00
2022-10-01T02:33:32.366Z,100.00
2022-10-01T02:38:37.423Z,100.00
2022-10-01T02:44:02.269Z,100.00
2022-10-01T02:49:04.479Z,100.00
2022-10-01T02:54:20.865Z,100.00
2022-10-01T02:59:22.654Z,100.00
2022-10-01T03:04:24.187Z,100.00
2022-10-01T03:09:26.841Z,100.00
2022-10-01T03:14:29.181Z,100.00
2022-10-01T03:19:30.782Z,100.00
2022-10-01T03:24:32.386Z,100.00
2022-10-01T03:29:33.980Z,100.00
2022-10-01T03:34:35.575Z,100.00
2022-10-01T03:39:37.238Z,100.00
2022-10-01T03:44:38.902Z,100.00
2022-10-01T03:49:40.528Z,100.00
2022-10-01T03:54:42.083Z,100.00
2022-10-01T03:59:43.633Z,100.00
2022-10-01T04:04:45.187Z,100.00
2022-10-01T04:09:46.748Z,100.00
2022-10-01T04:14:48.285Z,100.00
2022-10-01T04:19:49.808Z,100.00
2022-10-01T04:24:52.346Z,100.00
2022-10-01T04:29:53.875Z,100.00
2022-10-01T04:34:55.522Z,100.00
2022-10-01T04:39:57.104Z,100.00
2022-10-01T04:44:58.650Z,100.00
2022-10-01T04:50:00.189Z,100.00
2022-10-01T04:55:01.786Z,100.00
2022-10-01T05:00:05.914Z,100.00
2022-10-01T05:05:08.118Z,100.00
2022-10-01T05:10:13.268Z,100.00
2022-10-01T05:15:16.404Z,100.00
2022-10-01T05:20:21.382Z,100.00
2022-10-01T05:25:23.427Z,100.00
2022-10-01T05:30:25.305Z,100.00
2022-10-01T05:35:27.757Z,100.00
2022-10-01T05:40:30.605Z,100.00
2022-10-01T05:45:32.643Z,100.00
2022-10-01T05:50:39.222Z,100.00
2022-10-01T05:55:40.765Z,100.00
2022-10-01T06:00:43.289Z,100.00
2022-10-01T06:05:45.002Z,100.00
2022-10-01T06:10:47.141Z,100.00
2022-10-01T06:15:52.319Z,100.00
2022-10-01T06:20:53.873Z,100.00
2022-10-01T06:25:55.419Z,100.00
2022-10-01T06:30:57.087Z,100.00
2022-10-01T06:35:58.656Z,100.00
2022-10-01T06:41:01.846Z,100.00
2022-10-01T06:46:05.133Z,100.00
2022-10-01T06:51:06.955Z,100.00
2022-10-01T06:56:08.621Z,100.00
2022-10-01T07:01:11.088Z,100.00
2022-10-01T07:06:12.860Z,100.00
2022-10-01T07:11:14.442Z,98.82
2022-10-01T07:16:16.123Z,97.42
2022-10-01T07:21:17.669Z,97.94
2022-10-01T07:26:19.193Z,97.56
2022-10-01T07:31:20.881Z,99.66
2022-10-01T07:36:22.493Z,98.10
2022-10-01T07:41:24.082Z,97.79
2022-10-01T07:46:25.613Z,97.33
2022-10-01T07:51:27.195Z,97.94
2022-10-01T07:56:29.090Z,95.00
2022-10-01T08:01:32.019Z,93.02
2022-10-01T08:06:33.931Z,93.30
2022-10-01T08:11:38.031Z,95.08
2022-10-01T08:16:41.045Z,93.10
2022-10-01T08:21:42.995Z,90.82
2022-10-01T08:26:44.705Z,88.75
2022-10-01T08:31:46.365Z,91.29
2022-10-01T08:36:51.733Z,90.43
2022-10-01T08:41:53.262Z,90.02
2022-10-01T08:47:08.260Z,91.16
2022-10-01T08:52:24.064Z,89.20
2022-10-01T08:57:32.390Z,88.77
2022-10-01T09:02:38.104Z,88.41
2022-10-01T09:08:04.281Z,84.02
2022-10-01T09:13:30.381Z,72.62
2022-10-01T09:18:57.483Z,69.80
2022-10-01T09:24:15.835Z,66.72
2022-10-01T09:29:31.338Z,66.68
2022-10-01T09:34:40.059Z,64.66
2022-10-01T09:40:24.861Z,66.07
2022-10-01T09:45:26.600Z,64.61
2022-10-01T09:50:38.607Z,64.09
2022-10-01T09:55:53.572Z,64.58
2022-10-01T10:00:56.595Z,64.70
2022-10-01T10:06:02.288Z,63.92
2022-10-01T10:11:10.492Z,63.83
2022-10-01T10:16:26.423Z,63.30
2022-10-01T10:21:30.865Z,63.91
2022-10-01T10:26:40.016Z,61.48
2022-10-01T10:31:45.807Z,64.34
2022-10-01T10:36:47.994Z,64.69
2022-10-01T10:41:51.969Z,65.87
2022-10-01T10:46:59.712Z,69.41
2022-10-01T10:52:01.762Z,70.57
2022-10-01T10:57:04.485Z,74.15
2022-10-01T11:02:16.024Z,78.89
2022-10-01T11:07:23.678Z,77.25
2022-10-01T11:13:06.704Z,79.03
2022-10-01T11:18:25.153Z,83.31
2022-10-01T11:23:48.100Z,80.56
2022-10-01T11:29:15.104Z,83.74
2022-10-01T11:34:48.663Z,85.22
2022-10-01T11:39:55.742Z,84.77
2022-10-01T11:45:17.877Z,86.79
2022-10-01T11:50:25.212Z,89.42
2022-10-01T11:56:07.056Z,91.30
2022-10-01T12:01:16.293Z,91.28
2022-10-01T12:06:40.970Z,92.66
2022-10-01T12:11:54.542Z,94.81
2022-10-01T12:17:09.883Z,95.84
2022-10-01T12:22:15.748Z,98.48
2022-10-01T12:27:56.985Z,98.81
2022-10-01T12:33:17.352Z,100.00
2022-10-01T12:38:43.271Z,100.00
2022-10-01T12:43:53.885Z,100.00
2022-10-01T12:49:15.809Z,100.00
2022-10-01T12:54:30.998Z,100.00
2022-10-01T13:00:05.214Z,100.00
2022-10-01T13:05:37.531Z,99.20
2022-10-01T13:10:59.997Z,99.28
2022-10-01T13:16:16.852Z,97.57
2022-10-01T13:21:29.332Z,99.67
2022-10-01T13:26:34.135Z,96.94
2022-10-01T13:31:51.627Z,97.88
2022-10-01T13:36:53.553Z,100.00
2022-10-01T13:41:58.579Z,100.00
2022-10-01T13:47:07.076Z,100.00
2022-10-01T13:52:20.160Z,100.00
2022-10-01T13:57:32.448Z,100.00
2022-10-01T14:02:36.744Z,100.00
2022-10-01T14:07:40.030Z,100.00
2022-10-01T14:13:04.471Z,98.45
2022-10-01T14:18:16.240Z,97.57
2022-10-01T14:23:27.900Z,97.88
2022-10-01T14:28:56.689Z,93.02
2022-10-01T14:34:19.882Z,91.58
2022-10-01T14:39:23.223Z,91.32
2022-10-01T14:44:38.201Z,89.20
2022-10-01T14:49:39.785Z,87.42
2022-10-01T14:54:51.470Z,88.70
2022-10-01T14:59:54.065Z,86.59
2022-10-01T15:04:57.161Z,85.54
2022-10-01T15:10:08.338Z,86.74
2022-10-01T15:15:42.044Z,88.17
2022-10-01T15:21:02.559Z,85.98
2022-10-01T15:26:08.973Z,84.98
2022-10-01T15:31:10.908Z,84.93
2022-10-01T15:36:17.762Z,83.95
2022-10-01T15:41:31.418Z,85.21
2022-10-01T15:46:35.667Z,85.08
2022-10-01T15:52:06.030Z,85.00
2022-10-01T15:57:08.972Z,85.99
2022-10-01T16:02:19.993Z,84.91
2022-10-01T16:07:27.749Z,84.20
2022-10-01T16:12:30.286Z,85.47
2022-10-01T16:17:37.421Z,86.37
2022-10-01T16:22:39.803Z,86.98
2022-10-01T16:27:45.497Z,87.30
2022-10-01T16:32:47.263Z,87.69
2022-10-01T16:37:51.873Z,87.00
2022-10-01T16:42:53.860Z,87.35
2022-10-01T16:47:59.260Z,87.22
2022-10-01T16:53:01.334Z,87.48
2022-10-01T16:58:04.614Z,86.83
2022-10-01T17:03:09.093Z,86.70
2022-10-01T17:08:14.523Z,87.44
2022-10-01T17:13:16.167Z,88.04
2022-10-01T17:18:18.754Z,88.10
2022-10-01T17:23:22.404Z,87.59
2022-10-01T17:28:24.504Z,88.27
2022-10-01T17:33:28.345Z,88.89
2022-10-01T17:38:30.241Z,88.19
2022-10-01T17:43:31.916Z,88.21
2022-10-01T17:48:33.575Z,87.32
2022-10-01T17:53:42.202Z,87.93
2022-10-01T17:58:46.016Z,86.42
2022-10-01T18:03:51.936Z,86.43
2022-10-01T18:08:56.187Z,87.10
2022-10-01T18:13:58.740Z,86.70
2022-10-01T18:24:23.599Z,85.76
2022-10-01T18:29:28.683Z,85.63
2022-10-01T18:34:57.826Z,85.72
2022-10-01T18:40:06.823Z,87.01
2022-10-01T18:45:15.980Z,87.69
2022-10-01T18:50:28.325Z,87.54
2022-10-01T18:56:11.632Z,87.51
2022-10-01T19:01:24.367Z,87.00
2022-10-01T19:06:49.820Z,85.25
2022-10-01T19:12:00.469Z,85.36
2022-10-01T19:17:11.159Z,84.93
2022-10-01T19:22:35.174Z,83.44
2022-10-01T19:27:55.399Z,83.41
2022-10-01T19:33:03.972Z,84.31
2022-10-01T19:38:29.794Z,86.54
2022-10-01T19:43:41.713Z,87.21
2022-10-01T19:49:09.682Z,87.84
2022-10-01T19:54:21.312Z,88.52
2022-10-01T19:59:23.266Z,89.17
2022-10-01T20:04:38.593Z,89.95
2022-10-01T20:09:43.972Z,88.90
2022-10-01T20:15:11.719Z,88.89
2022-10-01T20:20:23.818Z,87.91
2022-10-01T20:25:50.499Z,87.78
2022-10-01T20:31:00.431Z,88.51
2022-10-01T20:36:17.906Z,88.82
2022-10-01T20:41:22.096Z,87.33
2022-10-01T20:46:48.407Z,86.43
2022-10-01T20:51:55.887Z,87.10
2022-10-01T20:57:05.686Z,87.07
2022-10-01T21:02:41.810Z,85.75
2022-10-01T21:07:59.385Z,86.09
2022-10-01T21:13:19.138Z,86.01
2022-10-01T21:18:47.142Z,85.06
2022-10-01T21:24:06.056Z,85.96
2022-10-01T21:29:29.184Z,86.32
2022-10-01T21:35:16.248Z,85.75
2022-10-01T21:40:35.614Z,86.00
2022-10-01T21:46:08.951Z,86.56
2022-10-01T21:51:53.403Z,86.54
2022-10-01T21:57:17.278Z,86.69
2022-10-01T22:02:34.852Z,87.67
2022-10-01T22:07:43.194Z,88.09
2022-10-01T22:12:50.119Z,87.91
2022-10-01T22:17:53.723Z,86.89
2022-10-01T22:22:59.217Z,86.76
2022-10-01T22:28:08.304Z,87.93
2022-10-01T22:33:19.758Z,88.57
2022-10-01T22:38:31.440Z,87.79
2022-10-01T22:43:33.073Z,87.49
2022-10-01T22:48:59.873Z,87.69
2022-10-01T22:54:13.708Z,88.05
2022-10-01T22:59:27.340Z,88.64
2022-10-01T23:04:41.849Z,87.54
2022-10-01T23:10:03.743Z,87.20
2022-10-01T23:15:13.130Z,87.27
2022-10-01T23:20:31.898Z,88.74
2022-10-01T23:25:52.095Z,88.55
2022-10-01T23:31:12.522Z,88.90
2022-10-01T23:36:16.727Z,88.81
2022-10-01T23:41:25.343Z,88.51
2022-10-01T23:46:31.493Z,88.56
2022-10-01T23:51:42.990Z,88.87
2022-10-01T23:57:05.052Z,89.03
